createdAt,value
2018-12-06T00:00:58.979Z,1010.6
2018-12-06T00:02:20.947Z,1010.6
2018-12-06T00:03:22.332Z,1010.6
2018-12-06T00:04:44.299Z,1010.6
2018-12-06T00:05:45.684Z,1010.6
2018-12-06T00:07:07.892Z,1010.6
2018-12-06T00:08:09.275Z,1010.6
2018-12-06T00:09:31.245Z,1010.6
2018-12-06T00:10:32.628Z,1010.6
2018-12-06T00:11:54.612Z,1010.6
2018-12-06T00:12:55.996Z,1010.6
2018-12-06T00:14:18.196Z,1010.6
2018-12-06T00:15:19.580Z,1010.6
2018-12-06T00:16:41.556Z,1010.5
2018-12-06T00:17:42.942Z,1010.5
2018-12-06T00:19:04.908Z,1010.5
2018-12-06T00:20:06.292Z,1010.5
2018-12-06T00:21:28.286Z,1010.6
2018-12-06T00:22:29.683Z,1010.6
2018-12-06T00:23:51.652Z,1010.6
2018-12-06T00:24:53.109Z,1010.6
2018-12-06T00:26:15.004Z,1010.5
2018-12-06T00:27:16.388Z,1010.5
2018-12-06T00:28:38.580Z,1010.5
2018-12-06T00:29:39.964Z,1010.5
2018-12-06T00:31:01.932Z,1010.6
2018-12-06T00:32:03.316Z,1010.5
2018-12-06T00:33:25.284Z,1010.6
2018-12-06T00:34:26.669Z,1010.6
2018-12-06T00:35:48.876Z,1010.6
2018-12-06T00:36:50.252Z,1010.6
2018-12-06T00:38:12.220Z,1010.6
2018-12-06T00:39:13.604Z,1010.5
2018-12-06T00:40:35.572Z,1010.5
2018-12-06T00:41:36.956Z,1010.5
2018-12-06T00:42:58.663Z,1010.5
2018-12-06T00:44:00.045Z,1010.5
2018-12-06T00:45:22.012Z,1010.5
2018-12-06T00:46:23.399Z,1010.5
2018-12-06T00:47:45.364Z,1010.5
2018-12-06T00:48:46.748Z,1010.5
2018-12-06T00:50:08.893Z,1010.5
2018-12-06T00:51:10.279Z,1010.5
2018-12-06T00:52:32.248Z,1010.6
2018-12-06T00:53:33.628Z,1010.6
2018-12-06T00:54:55.597Z,1010.6
2018-12-06T00:55:56.980Z,1010.6
2018-12-06T00:57:19.180Z,1010.6
2018-12-06T00:58:20.564Z,1010.6
2018-12-06T00:59:42.613Z,1010.5
2018-12-06T01:00:43.997Z,1010.5
2018-12-06T01:02:05.965Z,1010.5
2018-12-06T01:03:07.348Z,1010.5
2018-12-06T01:04:29.548Z,1010.5
2018-12-06T01:05:30.932Z,1010.5
2018-12-06T01:06:52.901Z,1010.5
2018-12-06T01:07:54.284Z,1010.5
2018-12-06T01:09:16.252Z,1010.5
2018-12-06T01:10:17.637Z,1010.5
2018-12-06T01:11:39.621Z,1010.5
2018-12-06T01:12:41.005Z,1010.6
2018-12-06T01:14:02.973Z,1010.5
2018-12-06T01:15:04.357Z,1010.5
2018-12-06T01:16:26.325Z,1010.5
2018-12-06T01:17:27.709Z,1010.5
2018-12-06T01:18:49.909Z,1010.6
2018-12-06T01:19:51.293Z,1010.5
2018-12-06T01:21:13.261Z,1010.5
2018-12-06T01:22:14.645Z,1010.5
2018-12-06T01:23:36.613Z,1010.5
2018-12-06T01:24:37.997Z,1010.5
2018-12-06T01:26:00.133Z,1010.5
2018-12-06T01:27:01.517Z,1010.5
2018-12-06T01:28:23.485Z,1010.5
2018-12-06T01:29:24.869Z,1010.5
2018-12-06T01:30:46.838Z,1010.6
2018-12-06T01:31:48.221Z,1010.5
2018-12-06T01:33:10.213Z,1010.6
2018-12-06T01:34:11.597Z,1010.5
2018-12-06T01:35:33.565Z,1010.5
2018-12-06T01:36:34.949Z,1010.6
2018-12-06T01:37:56.917Z,1010.5
2018-12-06T01:38:58.305Z,1010.6
2018-12-06T01:40:20.301Z,1010.6
2018-12-06T01:41:21.686Z,1010.6
2018-12-06T01:42:43.645Z,1010.5
2018-12-06T01:43:45.029Z,1010.6
2018-12-06T01:45:06.998Z,1010.5
2018-12-06T01:46:08.382Z,1010.5
2018-12-06T01:47:30.581Z,1010.5
2018-12-06T01:48:31.967Z,1010.5
2018-12-06T01:49:53.942Z,1010.4
2018-12-06T01:50:55.325Z,1010.4
2018-12-06T01:52:16.797Z,1010.4
2018-12-06T01:53:18.181Z,1010.4
2018-12-06T01:54:40.166Z,1010.4
2018-12-06T01:55:41.551Z,1010.4
2018-12-06T01:57:03.517Z,1010.4
2018-12-06T01:58:04.901Z,1010.4
2018-12-06T01:59:26.870Z,1010.4
2018-12-06T02:00:28.253Z,1010.4
2018-12-06T02:01:50.457Z,1010.4
2018-12-06T02:02:51.837Z,1010.4
2018-12-06T02:04:13.311Z,1010.4
2018-12-06T02:05:14.693Z,1010.4
2018-12-06T02:06:36.661Z,1010.4
2018-12-06T02:07:38.046Z,1010.4
2018-12-06T02:09:00.181Z,1010.4
2018-12-06T02:10:01.569Z,1010.4
2018-12-06T02:11:23.533Z,1010.4
2018-12-06T02:12:24.919Z,1010.4
2018-12-06T02:13:46.885Z,1010.4
2018-12-06T02:14:48.270Z,1010.3
2018-12-06T02:16:10.462Z,1010.3
2018-12-06T02:17:11.847Z,1010.4
2018-12-06T02:18:33.814Z,1010.4
2018-12-06T02:19:35.199Z,1010.3
2018-12-06T02:20:57.165Z,1010.4
2018-12-06T02:21:58.550Z,1010.4
2018-12-06T02:23:20.629Z,1010.4
2018-12-06T02:24:22.014Z,1010.3
2018-12-06T02:25:43.982Z,1010.4
2018-12-06T02:26:45.367Z,1010.4
2018-12-06T02:28:07.334Z,1010.3
2018-12-06T02:29:08.719Z,1010.3
2018-12-06T02:30:30.920Z,1010.3
2018-12-06T02:31:32.302Z,1010.3
2018-12-06T02:32:54.270Z,1010.3
2018-12-06T02:33:55.654Z,1010.3
2018-12-06T02:35:17.627Z,1010.3
2018-12-06T02:36:19.012Z,1010.3
2018-12-06T02:37:40.990Z,1010.3
2018-12-06T02:38:42.374Z,1010.3
2018-12-06T02:40:04.334Z,1010.3
2018-12-06T02:41:05.721Z,1010.3
2018-12-06T02:42:27.686Z,1010.3
2018-12-06T02:43:29.074Z,1010.3
2018-12-06T02:44:51.201Z,1010.3
2018-12-06T02:45:52.582Z,1010.3
2018-12-06T02:47:14.614Z,1010.3
2018-12-06T02:48:15.998Z,1010.2
2018-12-06T02:49:37.958Z,1010.3
2018-12-06T02:50:39.343Z,1010.3
2018-12-06T02:52:01.334Z,1010.3
2018-12-06T02:53:02.718Z,1010.3
2018-12-06T02:54:24.686Z,1010.2
2018-12-06T02:55:26.070Z,1010.2
2018-12-06T02:56:48.170Z,1010.2
2018-12-06T02:57:49.390Z,1010.3
2018-12-06T02:59:11.521Z,1010.2
2018-12-06T03:00:12.905Z,1010.2
2018-12-06T03:01:34.872Z,1010.3
2018-12-06T03:02:36.255Z,1010.2
2018-12-06T03:03:58.226Z,1010.2
2018-12-06T03:04:59.607Z,1010.2
2018-12-06T03:06:21.798Z,1010.2
2018-12-06T03:07:23.183Z,1010.2
2018-12-06T03:08:45.152Z,1010.2
2018-12-06T03:09:46.535Z,1010.2
2018-12-06T03:11:08.616Z,1010.3
2018-12-06T03:12:09.999Z,1010.2
2018-12-06T03:13:31.983Z,1010.2
2018-12-06T03:14:33.367Z,1010.2
2018-12-06T03:15:55.336Z,1010.2
2018-12-06T03:16:56.723Z,1010.2
2018-12-06T03:18:18.687Z,1010.2
2018-12-06T03:19:20.072Z,1010.2
2018-12-06T03:22:01.965Z,1010.2
2018-12-06T03:23:03.351Z,1010.2
2018-12-06T03:24:25.325Z,1010.2
2018-12-06T03:25:26.706Z,1010.2
2018-12-06T03:26:48.687Z,1010.2
2018-12-06T03:27:50.071Z,1010.2
2018-12-06T03:29:12.031Z,1010.2
2018-12-06T03:30:13.409Z,1010.2
2018-12-06T03:31:35.384Z,1010.2
2018-12-06T03:32:36.768Z,1010.3
2018-12-06T03:33:58.759Z,1010.3
2018-12-06T03:35:00.143Z,1010.3
2018-12-06T03:36:22.111Z,1010.3
2018-12-06T03:37:23.496Z,1010.3
2018-12-06T03:38:45.468Z,1010.3
2018-12-06T03:39:46.852Z,1010.3
2018-12-06T03:41:08.832Z,1010.3
2018-12-06T03:42:10.217Z,1010.3
2018-12-06T03:43:32.184Z,1010.3
2018-12-06T03:44:33.568Z,1010.2
2018-12-06T03:45:55.535Z,1010.2
2018-12-06T03:46:56.921Z,1010.3
2018-12-06T03:48:18.905Z,1010.2
2018-12-06T03:49:20.289Z,1010.2
2018-12-06T03:50:42.257Z,1010.2
2018-12-06T03:51:43.641Z,1010.2
2018-12-06T03:53:05.608Z,1010.2
2018-12-06T03:54:06.999Z,1010.2
2018-12-06T03:55:28.977Z,1010.2
2018-12-06T03:56:30.363Z,1010.2
2018-12-06T03:57:52.328Z,1010.2
2018-12-06T03:58:53.712Z,1010.3
2018-12-06T04:00:16.680Z,1010.3
2018-12-06T04:01:18.064Z,1010.3
2018-12-06T04:02:40.052Z,1010.3
2018-12-06T04:03:41.432Z,1010.2
2018-12-06T04:05:03.394Z,1010.2
2018-12-06T04:06:04.776Z,1010.2
2018-12-06T04:07:26.745Z,1010.2
2018-12-06T04:08:28.129Z,1010.2
2018-12-06T04:09:50.112Z,1010.2
2018-12-06T04:10:51.497Z,1010.2
2018-12-06T04:27:49.286Z,1010.3
2018-12-06T04:28:50.665Z,1010.3
2018-12-06T04:30:12.635Z,1010.3
2018-12-06T04:31:14.019Z,1010.5
2018-12-06T04:32:36.210Z,1010.5
2018-12-06T04:33:37.595Z,1010.4
2018-12-06T04:34:59.562Z,1010.3
2018-12-06T04:36:00.938Z,1010.4
2018-12-06T04:37:22.914Z,1010.4
2018-12-06T04:38:24.299Z,1010.5
2018-12-06T04:39:46.540Z,1010.5
2018-12-06T04:40:47.885Z,1010.4
2018-12-06T04:42:09.853Z,1010.4
2018-12-06T04:43:11.237Z,1010.4
2018-12-06T04:44:33.202Z,1010.5
2018-12-06T04:45:34.587Z,1010.5
2018-12-06T04:46:57.562Z,1010.5
2018-12-06T04:47:58.955Z,1010.5
2018-12-06T04:49:20.927Z,1010.5
2018-12-06T04:50:22.306Z,1010.4
2018-12-06T04:51:44.283Z,1010.5
2018-12-06T04:52:45.651Z,1010.5
2018-12-06T04:54:07.939Z,1010.5
2018-12-06T04:55:09.324Z,1010.5
2018-12-06T04:56:31.291Z,1010.5
2018-12-06T04:57:32.675Z,1010.6
2018-12-06T04:58:54.643Z,1010.6
2018-12-06T04:59:56.030Z,1010.6
2018-12-06T05:01:18.020Z,1010.7
2018-12-06T05:02:19.407Z,1010.7
2018-12-06T05:03:42.372Z,1010.7
2018-12-06T05:04:43.756Z,1010.7
2018-12-06T05:06:05.724Z,1010.7
2018-12-06T05:07:07.108Z,1010.7
2018-12-06T05:08:29.309Z,1010.7
2018-12-06T05:09:30.694Z,1010.7
2018-12-06T05:10:52.660Z,1010.7
2018-12-06T05:11:54.044Z,1010.6
2018-12-06T05:13:16.021Z,1010.7
2018-12-06T05:14:17.404Z,1010.7
2018-12-06T05:15:39.476Z,1010.7
2018-12-06T05:16:40.748Z,1010.7
2018-12-06T05:18:02.716Z,1010.7
2018-12-06T05:19:04.104Z,1010.7
2018-12-06T05:20:26.084Z,1010.7
2018-12-06T05:21:27.468Z,1010.7
2018-12-06T05:22:49.596Z,1010.7
2018-12-06T05:23:50.980Z,1010.7
2018-12-06T05:25:12.940Z,1010.7
2018-12-06T05:26:14.330Z,1010.7
2018-12-06T05:27:36.293Z,1010.7
2018-12-06T05:28:37.678Z,1010.7
2018-12-06T05:29:59.804Z,1010.7
2018-12-06T05:31:01.188Z,1010.7
2018-12-06T05:32:23.156Z,1010.7
2018-12-06T05:33:24.541Z,1010.7
2018-12-06T05:34:46.613Z,1010.7
2018-12-06T05:35:47.996Z,1010.8
2018-12-06T05:37:10.004Z,1010.8
2018-12-06T05:38:11.380Z,1010.8
2018-12-06T05:39:33.349Z,1010.8
2018-12-06T05:40:34.733Z,1010.8
2018-12-06T05:41:56.701Z,1010.9
2018-12-06T05:42:58.085Z,1010.9
2018-12-06T05:44:20.276Z,1010.9
2018-12-06T05:45:21.661Z,1010.9
2018-12-06T05:46:43.628Z,1011.0
2018-12-06T05:47:45.004Z,1010.9
2018-12-06T05:49:06.980Z,1011.0
2018-12-06T05:50:08.364Z,1011.0
2018-12-06T05:51:30.349Z,1011.0
2018-12-06T05:52:31.732Z,1011.0
2018-12-06T05:53:53.701Z,1011.0
2018-12-06T05:54:55.101Z,1011.0
2018-12-06T05:56:17.071Z,1011.0
2018-12-06T05:57:18.452Z,1011.1
2018-12-06T05:58:40.589Z,1011.0
2018-12-06T05:59:41.973Z,1011.1
2018-12-06T06:01:03.941Z,1011.0
2018-12-06T06:02:05.326Z,1011.1
2018-12-06T06:03:27.293Z,1011.1
2018-12-06T06:04:28.677Z,1011.1
2018-12-06T06:05:50.885Z,1011.1
2018-12-06T06:06:52.269Z,1011.1
